Time;durP1;ratioP1;P1;durP2;ratioP2;P2;SDS_P1;SDS_P2;PMS_P1;PMS_P2;Temp;Humidity;BMP_temperature;BMP_pressure;BME280_temperature;BME280_humidity;BME280_pressure;Samples;Min_cycle;Max_cycle;Signal;HPM_P1;HPM_P2
2021/12/11 00:01:47;;;;;;;4.95;2.13;;;;;;;20.37;34.70;100365.41;5055131;27;97065;-64
2021/12/11 00:04:37;;;;;;;5.05;2.22;;;;;;;20.33;34.63;100360.31;5052231;27;98966;-61
2021/12/11 00:07:08;;;;;;;3.88;2.20;;;;;;;20.28;34.73;100373.19;5053116;27;98617;-61
2021/12/11 00:09:40;;;;;;;7.13;2.80;;;;;;;20.22;34.73;100368.34;5059265;27;97138;-63
2021/12/11 00:12:25;;;;;;;4.90;2.50;;;;;;;20.18;34.68;100380.25;5056797;27;97121;-62
2021/12/11 00:15:05;;;;;;;5.22;2.60;;;;;;;20.10;34.60;100385.34;5058500;27;96843;-64
2021/12/11 00:17:33;;;;;;;5.88;2.58;;;;;;;20.06;34.68;100390.09;5059747;27;97540;-61
2021/12/11 00:20:00;;;;;;;5.05;2.55;;;;;;;20.03;34.96;100393.00;5057499;27;98084;-62
2021/12/11 00:22:31;;;;;;;4.68;2.50;;;;;;;20.01;34.80;100400.28;5055202;27;97003;-61
2021/12/11 00:25:09;;;;;;;6.05;3.08;;;;;;;19.92;34.69;100420.59;5055801;27;97836;-61
2021/12/11 00:27:38;;;;;;;4.35;2.80;;;;;;;19.85;34.60;100424.66;5050510;27;98827;-61
2021/12/11 00:30:10;;;;;;;5.18;2.45;;;;;;;19.82;34.82;100430.25;5052091;27;97121;-60
2021/12/11 00:32:36;;;;;;;5.10;2.80;;;;;;;19.80;34.92;100438.38;5052599;27;98194;-61
2021/12/11 00:35:15;;;;;;;4.80;2.47;;;;;;;19.78;34.77;100439.47;5058797;27;96948;-61
2021/12/11 00:37:41;;;;;;;5.03;2.88;;;;;;;19.75;34.90;100439.69;5059540;27;96823;-61
2021/12/11 00:40:10;;;;;;;5.07;2.60;;;;;;;19.73;35.07;100444.31;5059144;27;98733;-62
2021/12/11 00:42:37;;;;;;;5.30;2.90;;;;;;;19.67;35.02;100443.78;5058936;27;98772;-61
2021/12/11 00:45:16;;;;;;;5.45;2.70;;;;;;;19.65;35.10;100455.59;5061814;27;97325;-63
2021/12/11 00:48:00;;;;;;;5.15;2.40;;;;;;;19.59;35.11;100459.56;5059226;27;96869;-64
2021/12/11 00:50:35;;;;;;;6.00;2.88;;;;;;;19.57;34.91;100460.66;5050001;27;97994;-61
2021/12/11 00:53:15;;;;;;;5.90;2.83;;;;;;;19.52;35.10;100461.00;5052341;27;98738;-61
2021/12/11 00:55:47;;;;;;;5.78;2.60;;;;;;;19.48;35.22;100467.53;5051947;27;97080;-61
2021/12/11 00:58:19;;;;;;;6.22;3.08;;;;;;;19.46;35.22;100480.13;5068587;27;97157;-62
2021/12/11 01:00:58;;;;;;;5.13;2.97;;;;;;;19.43;35.16;100493.75;5051660;27;97101;-61
2021/12/11 01:03:46;;;;;;;5.03;3.13;;;;;;;19.40;35.01;100500.16;5051700;27;98331;-64
2021/12/11 01:06:24;;;;;;;5.63;2.85;;;;;;;19.36;35.27;100504.88;5054824;27;97532;-64
2021/12/11 01:09:02;;;;;;;3.88;2.65;;;;;;;19.36;35.45;100509.38;5061140;27;96815;-62
2021/12/11 01:12:05;;;;;;;5.35;2.92;;;;;;;19.32;35.28;100518.56;5053401;27;97097;-65
2021/12/11 01:14:52;;;;;;;4.82;2.88;;;;;;;19.30;35.55;100526.72;5047821;27;98769;-62
2021/12/11 01:17:41;;;;;;;4.80;2.83;;;;;;;19.28;35.17;100527.78;5051680;27;97876;-63
2021/12/11 01:20:25;;;;;;;3.92;2.65;;;;;;;19.28;35.02;100538.47;5054258;27;97041;-62
2021/12/11 01:22:52;;;;;;;4.80;2.80;;;;;;;19.26;35.13;100541.25;5053947;27;97006;-61
2021/12/11 01:25:26;;;;;;;5.15;2.58;;;;;;;19.26;35.08;100556.44;5056720;27;97062;-62
2021/12/11 01:27:55;;;;;;;;;;;;;;;19.26;35.09;100554.59;5057460;27;97050;-61
2021/12/11 01:30:42;;;;;;;4.00;2.70;;;;;;;19.23;35.17;100561.03;5057506;27;97429;-61
2021/12/11 01:33:11;;;;;;;4.07;2.85;;;;;;;19.19;34.99;100564.03;5052014;27;97002;-65
2021/12/11 01:35:38;;;;;;;4.80;3.30;;;;;;;19.19;34.87;100567.53;5057320;27;96990;-65
2021/12/11 01:38:13;;;;;;;6.97;3.20;;;;;;;19.19;34.90;100580.91;5055570;27;98258;-65
2021/12/11 01:40:40;;;;;;;5.32;3.20;;;;;;;19.16;34.94;100586.47;5052411;27;98785;-61
2021/12/11 01:43:09;;;;;;;4.80;2.85;;;;;;;19.15;34.94;100587.44;5051704;27;97534;-61
2021/12/11 01:45:40;;;;;;;4.85;2.80;;;;;;;19.12;34.89;100592.16;5049928;27;97105;-62
2021/12/11 01:48:06;;;;;;;4.18;2.55;;;;;;;19.08;35.07;100595.03;5056554;27;96980;-61
2021/12/11 01:50:39;;;;;;;4.30;2.70;;;;;;;19.05;35.09;100602.41;5055138;27;98948;-61
2021/12/11 01:53:36;;;;;;;4.03;2.60;;;;;;;19.02;35.20;100608.81;5049362;27;97975;-62
2021/12/11 01:56:17;;;;;;;4.25;2.90;;;;;;;18.99;35.21;100610.84;5053853;27;97069;-65
2021/12/11 01:58:55;;;;;;;5.07;2.97;;;;;;;18.96;35.09;100616.41;5051557;27;97145;-62
2021/12/11 02:01:33;;;;;;;4.93;2.67;;;;;;;18.93;35.24;100628.13;5052665;27;97792;-61
2021/12/11 02:04:03;;;;;;;5.15;3.00;;;;;;;18.92;35.33;100639.78;5051658;27;100974;-64
2021/12/11 02:06:34;;;;;;;4.90;2.78;;;;;;;18.88;35.18;100643.59;5052133;27;97109;-61
2021/12/11 02:09:14;;;;;;;4.95;2.95;;;;;;;18.86;35.29;100650.84;5051753;27;97141;-62
2021/12/11 02:11:40;;;;;;;5.78;3.10;;;;;;;18.82;35.33;100647.53;5051791;27;97137;-60
2021/12/11 02:14:07;;;;;;;4.30;2.80;;;;;;;18.84;35.41;100656.31;5052915;27;98760;-62
2021/12/11 02:16:46;;;;;;;4.80;2.70;;;;;;;18.82;35.40;100655.56;5048001;27;98931;-62
2021/12/11 02:19:22;;;;;;;4.38;2.88;;;;;;;18.76;35.20;100654.16;5048680;27;96992;-61
2021/12/11 02:22:05;;;;;;;4.55;2.65;;;;;;;18.72;35.36;100657.97;5050421;27;98458;-62
2021/12/11 02:24:49;;;;;;;5.32;2.95;;;;;;;18.72;35.34;100660.66;5049352;27;97800;-61
2021/12/11 02:27:29;;;;;;;4.78;2.90;;;;;;;18.70;35.32;100661.72;5051027;27;98749;-62
2021/12/11 02:30:19;;;;;;;4.07;3.05;;;;;;;18.68;35.38;100674.31;5048735;27;98682;-65
2021/12/11 02:33:14;;;;;;;5.40;2.88;;;;;;;18.67;35.47;100678.81;5048036;27;97262;-62
2021/12/11 02:35:51;;;;;;;4.93;3.00;;;;;;;18.62;35.57;100697.81;5052402;27;98888;-61
2021/12/11 02:38:31;;;;;;;4.93;3.10;;;;;;;18.60;35.50;100697.06;5050483;27;98783;-62
2021/12/11 02:41:15;;;;;;;4.18;2.85;;;;;;;18.60;35.47;100704.22;5053452;27;98640;-64
2021/12/11 02:43:57;;;;;;;4.13;2.60;;;;;;;18.55;35.52;100704.53;5059215;27;97081;-61
2021/12/11 02:46:35;;;;;;;4.28;2.92;;;;;;;18.51;35.73;100705.66;5056686;27;96818;-61
2021/12/11 02:49:15;;;;;;;5.60;2.83;;;;;;;18.46;35.51;100703.31;5052707;27;99490;-61
2021/12/11 02:51:51;;;;;;;4.55;2.67;;;;;;;18.45;35.57;100701.59;5051088;27;98675;-63
2021/12/11 02:54:33;;;;;;;4.82;2.80;;;;;;;18.43;35.63;100702.66;5051977;27;96982;-62
2021/12/11 02:57:09;;;;;;;3.88;2.85;;;;;;;18.42;35.74;100700.94;5050605;27;96941;-63
2021/12/11 02:59:41;;;;;;;4.45;2.85;;;;;;;18.39;35.65;100707.34;5050000;27;97044;-68
2021/12/11 03:02:17;;;;;;;4.93;2.80;;;;;;;18.30;35.81;100705.28;5051168;27;98685;-62
2021/12/11 03:04:51;;;;;;;4.00;2.60;;;;;;;18.28;36.22;100715.19;5052379;27;97540;-67
2021/12/11 03:07:24;;;;;;;5.00;3.08;;;;;;;18.25;36.04;100720.72;5049622;27;97159;-67
2021/12/11 03:09:56;;;;;;;4.50;2.85;;;;;;;18.20;36.07;100721.00;5050989;27;97302;-65
2021/12/11 03:12:24;;;;;;;4.25;2.65;;;;;;;18.15;36.26;100720.47;5052198;27;97684;-61
2021/12/11 03:14:50;;;;;;;6.35;3.25;;;;;;;18.20;35.89;100729.00;5065421;27;97504;-61
2021/12/11 03:17:19;;;;;;;5.30;2.90;;;;;;;18.20;36.05;100738.84;5051006;27;97092;-64
2021/12/11 03:19:46;;;;;;;4.53;2.75;;;;;;;18.10;36.47;100736.75;5055495;27;97089;-63
2021/12/11 03:22:23;;;;;;;3.22;2.65;;;;;;;18.07;36.40;100744.06;5050639;27;97023;-61
2021/12/11 03:24:50;;;;;;;4.38;2.85;;;;;;;18.07;36.58;100750.28;5050786;27;98775;-61
2021/12/11 03:27:16;;;;;;;3.90;2.60;;;;;;;18.02;36.70;100754.19;5051277;27;97626;-64
2021/12/11 03:29:43;;;;;;;4.57;2.67;;;;;;;17.96;36.55;100761.63;5048473;27;97007;-60
2021/12/11 03:32:11;;;;;;;5.80;3.00;;;;;;;17.98;36.38;100764.22;5049003;27;97026;-61
2021/12/11 03:34:37;;;;;;;4.30;2.80;;;;;;;17.94;36.51;100768.84;5051276;27;98727;-62
2021/12/11 03:37:09;;;;;;;4.78;2.83;;;;;;;18.00;36.40;100771.16;5049768;27;98618;-61
2021/12/11 03:39:42;;;;;;;4.47;2.50;;;;;;;18.02;36.31;100775.53;5051108;27;97108;-60
2021/12/11 03:42:18;;;;;;;5.15;2.60;;;;;;;18.03;36.42;100771.91;5053218;27;97021;-61
2021/12/11 03:44:45;;;;;;;3.92;2.78;;;;;;;17.96;36.73;100782.94;5052261;27;97122;-61
2021/12/11 03:47:19;;;;;;;3.70;3.03;;;;;;;17.96;36.49;100787.41;5049280;27;98754;-62
2021/12/11 03:49:45;;;;;;;;;;;;;;;17.91;36.90;100790.38;5056260;27;97430;-64
2021/12/11 03:52:14;;;;;;;4.85;2.78;;;;;;;17.92;36.53;100785.88;5043519;27;97032;-61
2021/12/11 03:54:44;;;;;;;4.20;2.90;;;;;;;17.92;36.42;100794.75;5054584;27;97016;-66
2021/12/11 03:57:15;;;;;;;4.63;3.30;;;;;;;17.92;36.36;100799.19;5055849;27;98749;-62
2021/12/11 03:59:47;;;;;;;5.35;2.90;;;;;;;17.88;36.34;100800.38;5055917;27;97551;-64
2021/12/11 04:02:15;;;;;;;5.05;3.17;;;;;;;17.88;36.39;100795.03;5055057;27;97027;-61
2021/12/11 04:04:49;;;;;;;3.40;2.75;;;;;;;17.85;36.60;100796.94;5052764;27;97038;-63
2021/12/11 04:07:22;;;;;;;3.78;2.72;;;;;;;17.76;36.76;100791.28;5046995;27;97161;-61
2021/12/11 04:09:48;;;;;;;3.97;2.80;;;;;;;17.69;37.01;100797.00;5049808;27;98788;-61
2021/12/11 04:12:15;;;;;;;4.40;3.20;;;;;;;17.70;36.83;100806.72;5048863;27;98449;-62
2021/12/11 04:14:48;;;;;;;4.72;3.10;;;;;;;17.69;36.99;100809.50;5049932;27;98541;-61
2021/12/11 04:17:22;;;;;;;3.92;3.08;;;;;;;17.73;37.22;100815.50;5047925;27;97965;-63
2021/12/11 04:19:51;;;;;;;3.95;3.03;;;;;;;17.70;36.74;100817.38;5049649;27;98647;-64
2021/12/11 04:22:17;;;;;;;4.88;2.83;;;;;;;17.74;36.47;100826.06;5050223;27;98660;-63
2021/12/11 04:24:46;;;;;;;3.42;2.78;;;;;;;17.72;36.74;100829.78;5047905;27;97201;-62
2021/12/11 04:27:16;;;;;;;3.22;2.70;;;;;;;17.67;36.89;100835.38;5048449;27;97115;-61
2021/12/11 04:29:43;;;;;;;4.60;3.17;;;;;;;17.64;37.12;100831.09;5049272;27;97898;-63
2021/12/11 04:32:11;;;;;;;4.20;3.05;;;;;;;17.64;36.98;100838.22;5049462;27;98717;-63
2021/12/11 04:34:37;;;;;;;3.75;3.00;;;;;;;17.57;37.16;100840.41;5051553;27;98031;-62
2021/12/11 04:37:13;;;;;;;3.03;2.75;;;;;;;17.49;37.06;100842.66;5050260;27;98248;-62
2021/12/11 04:39:45;;;;;;;4.07;3.20;;;;;;;17.47;37.22;100842.78;5065972;27;98228;-63
2021/12/11 04:42:32;;;;;;;3.67;3.08;;;;;;;17.44;37.35;100848.28;5054466;27;97733;-64
2021/12/11 04:44:58;;;;;;;4.15;3.22;;;;;;;17.50;37.01;100852.38;5053165;27;97585;-62
2021/12/11 04:47:36;;;;;;;5.78;3.03;;;;;;;17.51;37.10;100867.44;5053271;27;97687;-62
2021/12/11 04:50:14;;;;;;;3.22;2.67;;;;;;;17.50;37.39;100874.53;5052416;27;97037;-65
2021/12/11 04:52:59;;;;;;;3.92;2.97;;;;;;;17.51;37.51;100875.41;5052262;27;97049;-63
2021/12/11 04:58:44;;;;;;;3.43;2.77;;;;;;;17.35;37.69;100884.28;5054813;27;97179;-64
2021/12/11 05:01:44;;;;;;;4.35;3.00;;;;;;;17.35;37.70;100888.78;5051713;27;98707;-64
2021/12/11 05:04:29;;;;;;;3.78;3.00;;;;;;;17.36;37.71;100891.34;5055003;27;96885;-61
2021/12/11 05:09:37;;;;;;;3.90;3.05;;;;;;;17.33;37.40;100899.53;5051544;27;97801;-65
2021/12/11 05:12:17;;;;;;;5.50;3.25;;;;;;;17.37;37.58;100906.38;5052327;27;96991;-61
2021/12/11 05:14:45;;;;;;;3.90;2.97;;;;;;;17.37;37.58;100908.22;5052992;27;97083;-63
2021/12/11 05:17:12;;;;;;;3.15;2.67;;;;;;;17.45;37.50;100913.09;5050858;27;96975;-61
2021/12/11 05:19:39;;;;;;;3.47;2.90;;;;;;;17.52;37.37;100909.13;5060806;27;97744;-61
2021/12/11 05:22:08;;;;;;;4.00;2.88;;;;;;;17.58;37.42;100914.06;5048168;27;97112;-60
2021/12/11 05:24:37;;;;;;;3.47;2.85;;;;;;;17.62;37.31;100918.28;5052332;27;97383;-60
2021/12/11 05:27:04;;;;;;;4.05;3.17;;;;;;;17.67;37.17;100918.88;5051974;27;97238;-60
2021/12/11 05:29:30;;;;;;;3.45;2.80;;;;;;;17.70;37.08;100923.19;5053066;27;97821;-60
2021/12/11 05:31:57;;;;;;;4.10;3.22;;;;;;;17.74;37.19;100931.84;5049728;27;97094;-61
2021/12/11 05:34:23;;;;;;;3.13;2.70;;;;;;;17.76;37.50;100930.81;5051080;27;97114;-65
2021/12/11 05:36:49;;;;;;;3.13;2.75;;;;;;;17.78;37.34;100938.69;5051884;27;97301;-64
2021/12/11 05:39:19;;;;;;;3.90;3.10;;;;;;;17.79;37.25;100938.63;5051776;27;97092;-61
2021/12/11 05:41:46;;;;;;;3.40;3.10;;;;;;;17.79;37.09;100940.41;5053890;27;98811;-61
2021/12/11 05:44:17;;;;;;;5.15;2.80;;;;;;;17.80;37.27;100950.13;5052184;27;97130;-65
2021/12/11 05:46:43;;;;;;;3.85;3.08;;;;;;;17.80;37.10;100947.47;5052005;27;97403;-61
2021/12/11 05:49:11;;;;;;;3.25;2.70;;;;;;;17.80;37.23;100955.47;5053290;27;97005;-63
2021/12/11 05:51:39;;;;;;;3.80;2.92;;;;;;;17.81;37.23;100957.19;5051766;27;98757;-64
2021/12/11 05:54:15;;;;;;;3.50;2.80;;;;;;;17.81;37.32;100966.03;5051165;27;98181;-61
2021/12/11 05:56:43;;;;;;;3.03;2.70;;;;;;;17.82;37.33;100958.91;5049986;27;97073;-63
2021/12/11 05:59:14;;;;;;;3.00;2.70;;;;;;;17.81;37.34;100960.69;5052269;27;97061;-62
2021/12/11 06:01:54;;;;;;;3.42;2.80;;;;;;;17.80;37.38;100966.13;5050730;27;96942;-61
2021/12/11 06:04:31;;;;;;;3.10;2.80;;;;;;;17.79;37.52;100964.41;5061227;27;97737;-62
2021/12/11 06:07:00;;;;;;;3.85;2.95;;;;;;;17.78;37.43;100962.69;5055914;27;96993;-62
2021/12/11 06:09:27;;;;;;;3.25;2.78;;;;;;;17.79;37.47;100964.41;5057388;27;96901;-62
2021/12/11 06:11:59;;;;;;;3.15;2.83;;;;;;;17.81;37.49;100967.84;5057353;27;96844;-62
2021/12/11 06:14:26;;;;;;;3.90;3.05;;;;;;;17.82;37.30;100970.41;5057913;27;98882;-61
2021/12/11 06:16:57;;;;;;;3.10;2.80;;;;;;;17.83;37.39;100966.81;5052608;27;97699;-64
2021/12/11 06:19:26;;;;;;;2.90;2.60;;;;;;;17.83;37.38;100977.47;5054051;27;97312;-62
2021/12/11 06:21:54;;;;;;;4.43;2.70;;;;;;;17.84;37.44;100997.88;5055906;27;97139;-62
2021/12/11 06:24:22;;;;;;;3.08;2.45;;;;;;;17.89;37.72;100992.25;5047945;27;96990;-57
2021/12/11 06:26:49;;;;;;;3.00;2.70;;;;;;;17.99;37.63;100987.28;5044891;27;97994;-66
2021/12/11 06:29:14;;;;;;;3.28;2.97;;;;;;;18.05;37.48;100994.91;5046214;27;96913;-56
2021/12/11 06:31:43;;;;;;;3.17;2.78;;;;;;;18.09;37.48;100999.13;5048654;27;96965;-56
2021/12/11 06:34:10;;;;;;;4.13;2.78;;;;;;;18.15;37.13;100995.25;5044396;27;97104;-60
2021/12/11 06:36:37;;;;;;;4.25;3.03;;;;;;;18.19;37.05;100998.56;5040281;27;98556;-58
2021/12/11 06:39:13;;;;;;;6.78;2.72;;;;;;;18.20;37.28;101001.16;5049824;27;98655;-58
2021/12/11 06:41:42;;;;;;;5.03;2.67;;;;;;;18.25;37.32;101004.41;5049563;27;97336;-56
2021/12/11 06:44:09;;;;;;;5.68;2.40;;;;;;;18.32;37.41;101010.22;5040934;27;97105;-60
2021/12/11 06:46:37;;;;;;;4.55;2.30;;;;;;;18.39;37.29;101010.69;5053469;27;97230;-57
2021/12/11 06:49:05;;;;;;;6.32;2.70;;;;;;;18.42;37.28;101016.69;5050459;27;97573;-58
2021/12/11 06:51:32;;;;;;;5.13;2.20;;;;;;;18.44;37.34;101017.47;5041665;27;97000;-60
2021/12/11 06:54:08;;;;;;;3.80;2.60;;;;;;;18.47;37.06;101008.41;5046815;27;96860;-58
2021/12/11 06:56:36;;;;;;;3.28;2.30;;;;;;;18.51;37.14;101017.13;5053935;27;96897;-56
2021/12/11 06:59:04;;;;;;;2.42;2.22;;;;;;;18.51;37.09;101027.81;5050569;27;98390;-58
2021/12/11 07:01:30;;;;;;;4.45;2.60;;;;;;;18.59;37.57;101030.84;5049924;27;97576;-54
2021/12/11 07:03:59;;;;;;;4.32;2.38;;;;;;;18.63;36.90;101027.91;5045753;27;96910;-54
2021/12/11 07:06:28;;;;;;;4.25;2.80;;;;;;;18.62;37.00;101030.66;5048420;27;96928;-56
2021/12/11 07:08:54;;;;;;;3.30;2.55;;;;;;;18.73;37.25;101040.69;5057757;27;96948;-55
2021/12/11 07:11:22;;;;;;;3.47;2.50;;;;;;;18.78;36.50;101038.56;5046455;27;97497;-54
2021/12/11 07:13:48;;;;;;;3.40;2.83;;;;;;;18.71;36.70;101048.81;5047789;27;96986;-54
2021/12/11 07:16:14;;;;;;;3.40;2.83;;;;;;;18.69;36.96;101056.03;5054176;27;96825;-57
2021/12/11 07:18:40;;;;;;;3.30;2.63;;;;;;;18.69;37.04;101061.38;5054114;27;96997;-55
2021/12/11 07:21:07;;;;;;;4.10;2.50;;;;;;;18.77;37.30;101066.25;5052003;27;98771;-55
2021/12/11 07:23:34;;;;;;;5.03;2.60;;;;;;;18.90;37.03;101077.03;5048638;27;97092;-52
2021/12/11 07:26:16;;;;;;;6.88;2.67;;;;;;;18.99;37.13;101075.63;5046302;27;97470;-55
2021/12/11 07:28:48;;;;;;;6.70;3.28;;;;;;;19.08;37.37;101075.03;5046681;27;97044;-52
2021/12/11 07:31:15;;;;;;;4.40;3.22;;;;;;;19.04;37.27;101087.75;5057065;27;96987;-52
2021/12/11 07:33:40;;;;;;;4.20;2.83;;;;;;;18.96;37.36;101097.19;5053166;27;97863;-52
2021/12/11 07:36:06;;;;;;;6.97;3.45;;;;;;;18.79;37.54;101093.69;5054344;27;97025;-52
2021/12/11 07:38:32;;;;;;;7.18;3.58;;;;;;;18.71;37.74;101088.84;5053557;27;97062;-55
2021/12/11 07:41:02;;;;;;;4.65;3.55;;;;;;;18.66;38.46;101088.25;5053814;27;96868;-57
2021/12/11 07:43:29;;;;;;;6.85;3.63;;;;;;;18.63;38.34;101091.97;5051588;27;97673;-62
2021/12/11 07:46:01;;;;;;;8.32;3.50;;;;;;;18.69;37.94;101092.53;5054029;27;98577;-64
2021/12/11 07:48:26;;;;;;;6.78;3.88;;;;;;;18.60;38.68;101086.81;5047784;27;97059;-61
2021/12/11 07:50:53;;;;;;;5.55;3.60;;;;;;;18.59;39.18;101092.25;5046146;27;97635;-61
2021/12/11 07:53:20;;;;;;;6.63;3.70;;;;;;;18.60;39.23;101102.84;5057945;27;96757;-63
2021/12/11 07:55:46;;;;;;;7.95;4.13;;;;;;;18.67;39.01;101097.16;5048660;27;97679;-63
2021/12/11 07:58:12;;;;;;;6.65;4.00;;;;;;;18.73;38.89;101099.44;5050845;27;97035;-64
2021/12/11 08:00:41;;;;;;;9.70;3.80;;;;;;;18.90;38.87;101114.44;5052775;27;96965;-63
2021/12/11 08:03:10;;;;;;;13.07;3.83;;;;;;;18.95;38.68;101107.00;5054466;27;96901;-61
2021/12/11 08:05:38;;;;;;;5.72;3.85;;;;;;;18.97;38.47;101107.78;5051441;27;97998;-59
2021/12/11 08:08:06;;;;;;;7.68;4.82;;;;;;;19.03;38.21;101114.56;5052964;27;97943;-59
2021/12/11 08:10:34;;;;;;;8.02;4.18;;;;;;;19.04;38.35;101121.63;5053644;27;97405;-61
2021/12/11 08:13:04;;;;;;;5.55;4.03;;;;;;;19.00;38.21;101123.63;5052593;27;97256;-62
2021/12/11 08:15:31;;;;;;;12.18;4.80;;;;;;;19.02;38.07;101126.19;5059405;27;97015;-61
2021/12/11 08:17:56;;;;;;;12.50;5.18;;;;;;;18.88;37.74;101130.53;5055726;27;98727;-66
2021/12/11 08:20:31;;;;;;;13.02;4.80;;;;;;;18.85;38.15;101136.09;5053770;27;97022;-59
2021/12/11 08:22:58;;;;;;;12.30;5.13;;;;;;;19.05;38.27;101131.34;5049122;27;97001;-59
2021/12/11 08:25:28;;;;;;;11.77;5.28;;;;;;;19.30;37.78;101146.72;5043162;27;96912;-61
2021/12/11 08:27:56;;;;;;;7.85;5.10;;;;;;;19.58;37.26;101152.16;5058050;27;97914;-59
2021/12/11 08:30:25;;;;;;;15.23;4.53;;;;;;;19.85;37.03;101160.22;5057398;27;97404;-64
2021/12/11 08:32:51;;;;;;;15.95;5.22;;;;;;;20.14;36.57;101160.19;5057161;27;96909;-73
2021/12/11 08:35:17;;;;;;;11.05;4.40;;;;;;;20.42;36.32;101163.69;5053525;27;97271;-65
2021/12/11 08:39:43;;;;;;;7.70;3.67;;;;;;;19.97;38.19;101182.69;4981631;27;97034;-68
2021/12/11 08:42:19;;;;;;;9.68;3.85;;;;;;;19.47;39.18;101188.47;5027155;27;97285;-77
2021/12/11 08:44:53;;;;;;;11.18;3.50;;;;;;;19.20;39.99;101189.19;5038779;27;103867;-78
2021/12/11 08:54:28;;;;;;;12.18;3.60;;;;;;;20.45;41.19;101190.28;4966265;27;96488;-75
2021/12/11 08:56:55;;;;;;;10.55;3.75;;;;;;;20.51;40.15;101197.88;4988854;27;96971;-73
2021/12/11 08:59:26;;;;;;;8.82;3.40;;;;;;;20.44;39.76;101186.72;5035440;27;100283;-69
2021/12/11 09:02:12;;;;;;;8.82;3.78;;;;;;;20.35;39.64;101194.53;5042132;27;98939;-69
2021/12/11 09:04:55;;;;;;;11.55;4.63;;;;;;;20.25;39.64;101204.97;5032284;28;96966;-71
2021/12/11 09:07:46;;;;;;;9.23;4.38;;;;;;;20.16;39.51;101203.75;5032787;28;96898;-71
2021/12/11 09:10:44;;;;;;;10.48;4.78;;;;;;;20.09;39.52;101195.28;5015380;28;97192;-71
2021/12/11 09:13:47;;;;;;;14.55;4.72;;;;;;;20.06;39.48;101205.28;5028320;28;98078;-71
2021/12/11 09:16:48;;;;;;;11.90;4.18;;;;;;;20.02;39.56;101215.34;5034168;27;99280;-72
2021/12/11 09:19:24;;;;;;;13.80;4.57;;;;;;;20.00;39.62;101219.94;4948907;27;100364;-70
2021/12/11 09:22:15;;;;;;;8.57;4.53;;;;;;;20.00;39.70;101228.84;5068478;27;96886;-71
2021/12/11 09:24:59;;;;;;;10.75;4.07;;;;;;;20.02;39.72;101224.25;5029022;28;99437;-73
2021/12/11 09:27:41;;;;;;;9.80;4.05;;;;;;;20.06;39.67;101240.09;5034845;27;98746;-72
2021/12/11 09:30:23;;;;;;;10.10;3.78;;;;;;;20.06;39.51;101240.97;5037452;27;96939;-75
2021/12/11 09:33:03;;;;;;;7.00;4.03;;;;;;;20.09;39.57;101243.44;5049111;27;96994;-72
2021/12/11 09:35:46;;;;;;;8.43;3.90;;;;;;;20.11;39.45;101252.22;5055399;27;96890;-74
2021/12/11 09:38:19;;;;;;;7.90;4.38;;;;;;;20.11;39.33;101246.00;5041121;27;98203;-73
2021/12/11 09:40:46;;;;;;;10.93;4.70;;;;;;;20.11;39.43;101257.56;5056283;27;98017;-75
2021/12/11 09:43:36;;;;;;;6.43;4.10;;;;;;;20.12;39.21;101263.78;5052623;27;96984;-74
2021/12/11 09:46:08;;;;;;;8.90;4.45;;;;;;;20.12;39.25;101267.31;5034253;28;96996;-74
2021/12/11 09:48:34;;;;;;;8.73;4.07;;;;;;;20.12;38.91;101280.69;5031695;27;98850;-73
2021/12/11 09:51:04;;;;;;;8.52;4.47;;;;;;;20.12;39.14;101277.16;5053382;27;97600;-75
2021/12/11 09:53:43;;;;;;;9.10;4.50;;;;;;;20.12;39.11;101274.50;5051054;27;97548;-73
2021/12/11 09:56:29;;;;;;;9.43;4.63;;;;;;;20.12;39.12;101277.16;5053707;27;96882;-73
2021/12/11 09:58:58;;;;;;;10.13;5.40;;;;;;;20.11;39.01;101289.69;5054257;27;96959;-75
2021/12/11 10:01:32;;;;;;;14.43;5.63;;;;;;;20.11;39.07;101297.72;5057080;27;98214;-73
2021/12/11 10:04:13;;;;;;;12.02;5.82;;;;;;;20.11;39.22;101307.56;5031613;28;98976;-73
2021/12/11 10:09:35;;;;;;;21.15;8.02;;;;;;;20.09;39.36;101312.16;5040494;28;96864;-75
2021/12/11 10:12:26;;;;;;;22.63;8.27;;;;;;;20.09;39.44;101320.19;5040631;28;97853;-78
2021/12/11 10:15:17;;;;;;;19.60;7.53;;;;;;;20.06;39.44;101323.91;5018964;28;99328;-76
2021/12/11 10:18:02;;;;;;;14.65;7.00;;;;;;;20.04;39.34;101330.31;5026217;28;97192;-76
2021/12/11 10:20:54;;;;;;;19.48;7.97;;;;;;;20.01;39.46;101336.72;5039814;28;96857;-74
2021/12/11 10:23:28;;;;;;;16.80;6.75;;;;;;;19.99;39.38;101330.63;5010817;27;96827;-77
2021/12/11 10:25:59;;;;;;;16.38;7.45;;;;;;;19.97;39.58;101343.22;5030521;28;98756;-77
2021/12/11 10:28:29;;;;;;;17.35;7.07;;;;;;;19.95;39.55;101354.00;5041310;28;97666;-76
2021/12/11 10:31:07;;;;;;;24.45;7.35;;;;;;;19.95;39.46;101353.16;5026015;28;97098;-76
2021/12/11 10:33:33;;;;;;;19.50;6.90;;;;;;;19.93;39.58;101361.28;5060091;27;96803;-77
2021/12/11 10:36:05;;;;;;;18.13;6.90;;;;;;;19.91;39.53;101355.16;5042900;27;97471;-71
2021/12/11 10:38:32;;;;;;;20.38;8.05;;;;;;;19.91;39.62;101355.16;5019546;28;97767;-72
2021/12/11 10:41:02;;;;;;;22.35;8.25;;;;;;;19.91;39.64;101362.31;5031815;27;97141;-70
2021/12/11 10:44:15;;;;;;;18.23;8.05;;;;;;;19.91;39.63;101355.16;5034667;28;97101;-71
2021/12/11 10:46:49;;;;;;;22.55;8.50;;;;;;;19.90;39.92;101366.81;5035003;28;97244;-72
2021/12/11 10:49:17;;;;;;;21.33;8.75;;;;;;;19.89;39.77;101365.09;5032198;28;98968;-71
2021/12/11 10:51:50;;;;;;;18.55;8.70;;;;;;;19.88;39.82;101374.06;5040026;28;97713;-70
2021/12/11 10:54:18;;;;;;;21.00;8.43;;;;;;;19.87;39.88;101377.69;5017389;28;97210;-69
2021/12/11 10:56:46;;;;;;;23.15;8.32;;;;;;;19.85;39.89;101388.50;5035779;28;96908;-71
2021/12/11 10:59:19;;;;;;;27.67;8.68;;;;;;;19.85;39.67;101401.88;5038547;28;97931;-72
2021/12/11 11:01:58;;;;;;;;;;;;;;;19.85;39.88;101401.88;5031539;28;99259;-72
2021/12/11 11:04:50;;;;;;;23.30;8.32;;;;;;;19.85;39.95;101404.56;5034972;28;96873;-71
2021/12/11 11:07:16;;;;;;;18.73;8.20;;;;;;;19.86;40.06;101416.09;5018204;28;97027;-71
2021/12/11 11:09:43;;;;;;;18.67;7.65;;;;;;;19.86;40.04;101416.09;5026210;28;96837;-74
2021/12/11 11:12:18;;;;;;;24.88;8.05;;;;;;;19.86;40.16;101425.00;5028256;27;98907;-73
2021/12/11 11:14:47;;;;;;;16.98;8.18;;;;;;;19.87;40.10;101420.50;5042723;27;96928;-75
2021/12/11 11:17:19;;;;;;;16.38;8.15;;;;;;;19.89;40.29;101433.81;5017447;28;97042;-73
2021/12/11 11:19:48;;;;;;;23.15;7.80;;;;;;;19.89;40.21;101437.31;5039094;28;96868;-73
2021/12/11 11:22:21;;;;;;;34.00;9.48;;;;;;;19.90;40.19;101441.72;5035728;28;98240;-76
2021/12/11 11:24:54;;;;;;;19.65;8.80;;;;;;;19.92;40.28;101436.28;5030069;28;99142;-70
2021/12/11 11:27:21;;;;;;;16.08;7.63;;;;;;;19.93;40.25;101435.31;5018013;28;97048;-71
2021/12/11 11:29:48;;;;;;;16.73;8.27;;;;;;;19.95;40.40;101449.47;5022083;28;97119;-71
2021/12/11 11:32:21;;;;;;;18.20;7.45;;;;;;;19.99;40.31;101451.88;5026965;28;97006;-72
2021/12/11 11:34:47;;;;;;;11.90;7.43;;;;;;;20.04;40.46;101456.09;5024238;28;98468;-72
2021/12/11 11:37:20;;;;;;;21.13;7.60;;;;;;;20.08;40.40;101463.84;5000322;28;97079;-72
2021/12/11 11:39:48;;;;;;;12.95;7.03;;;;;;;20.13;40.30;101464.41;5007185;28;96863;-75
2021/12/11 11:42:20;;;;;;;12.65;6.82;;;;;;;20.17;40.33;101474.00;5021036;28;97015;-74
2021/12/11 11:44:49;;;;;;;14.23;6.63;;;;;;;20.22;40.29;101473.69;5038713;28;97738;-73
2021/12/11 11:47:18;;;;;;;13.25;6.40;;;;;;;20.27;40.30;101489.47;5023188;27;97483;-70
2021/12/11 11:49:44;;;;;;;12.90;6.25;;;;;;;20.29;40.39;101488.44;5041708;27;97163;-70
2021/12/11 11:52:17;;;;;;;12.13;5.55;;;;;;;20.34;40.59;101493.50;5039358;27;96961;-75
2021/12/11 11:54:47;;;;;;;15.63;7.88;;;;;;;20.38;40.27;101487.00;5040485;27;96721;-75
2021/12/11 11:57:37;;;;;;;15.50;7.75;;;;;;;20.40;40.41;101487.75;5005904;28;99011;-75
2021/12/11 12:00:18;;;;;;;23.38;7.75;;;;;;;20.44;40.25;101491.97;5017488;28;96878;-74
2021/12/11 12:02:45;;;;;;;14.27;7.15;;;;;;;20.48;40.18;101501.56;5017128;28;96900;-73
2021/12/11 12:05:11;;;;;;;11.55;7.07;;;;;;;20.51;40.08;101497.81;5049240;27;97005;-77
2021/12/11 12:07:37;;;;;;;14.77;7.32;;;;;;;20.55;40.25;101506.50;5052648;27;98675;-75
2021/12/11 12:10:23;;;;;;;12.43;6.97;;;;;;;20.58;40.19;101515.22;5019645;28;100258;-75